createdAt,value
2022-09-29T00:20:39.900Z,6.50
2022-09-29T00:23:07.516Z,4.97
2022-09-29T00:25:35.016Z,5.60
2022-09-29T00:28:02.382Z,5.70
2022-09-29T00:30:29.928Z,5.20
2022-09-29T00:32:57.203Z,7.35
2022-09-29T00:35:24.487Z,6.60
2022-09-29T00:37:52.034Z,5.45
2022-09-29T00:40:19.376Z,6.85
2022-09-29T00:42:46.710Z,5.35
2022-09-29T00:45:22.976Z,9.75
2022-09-29T00:47:56.320Z,4.80
2022-09-29T00:50:38.221Z,5.18
2022-09-29T00:53:11.960Z,8.47
2022-09-29T00:56:05.439Z,6.93
2022-09-29T00:58:43.407Z,5.65
2022-09-29T01:01:12.429Z,6.43
2022-09-29T01:03:42.706Z,5.40
2022-09-29T01:06:16.921Z,5.87
2022-09-29T01:08:52.644Z,8.15
2022-09-29T01:11:22.069Z,5.87
2022-09-29T01:13:50.136Z,6.40
2022-09-29T01:16:17.489Z,4.65
2022-09-29T01:18:45.529Z,5.93
2022-09-29T01:21:19.051Z,5.00
2022-09-29T01:24:19.222Z,5.80
2022-09-29T01:27:08.268Z,6.45
2022-09-29T01:29:56.671Z,6.57
2022-09-29T01:32:29.196Z,11.63
2022-09-29T01:37:48.423Z,5.68
2022-09-29T01:40:18.961Z,6.07
2022-09-29T01:42:52.527Z,4.37
2022-09-29T01:45:36.969Z,8.15
2022-09-29T01:48:08.941Z,6.00
2022-09-29T01:50:39.954Z,5.70
2022-09-29T01:53:11.351Z,4.22
2022-09-29T01:55:44.113Z,7.03
2022-09-29T01:58:27.933Z,7.65
2022-09-29T02:00:57.925Z,8.85
2022-09-29T02:03:30.017Z,8.85
2022-09-29T02:06:03.495Z,7.22
2022-09-29T02:08:40.953Z,8.82
2022-09-29T02:11:11.297Z,7.60
2022-09-29T02:14:04.212Z,7.07
2022-09-29T02:19:04.372Z,9.63
2022-09-29T02:21:31.897Z,6.13
2022-09-29T02:23:59.315Z,6.00
2022-09-29T02:26:30.426Z,7.82
2022-09-29T02:28:58.028Z,7.07
2022-09-29T02:31:25.412Z,8.13
2022-09-29T02:33:52.995Z,7.80
2022-09-29T02:36:41.484Z,8.88
2022-09-29T02:39:15.903Z,8.15
2022-09-29T02:42:21.746Z,6.62
2022-09-29T02:44:58.781Z,6.72
2022-09-29T02:47:45.091Z,8.55
2022-09-29T02:50:26.707Z,6.45
2022-09-29T02:53:23.841Z,6.85
2022-09-29T02:56:32.482Z,6.57
2022-09-29T02:59:09.365Z,8.35
2022-09-29T03:01:47.613Z,6.87
2022-09-29T03:04:15.076Z,8.43
2022-09-29T03:06:42.735Z,9.13
2022-09-29T03:09:10.245Z,8.50
2022-09-29T03:11:37.524Z,8.68
2022-09-29T03:14:06.628Z,10.18
2022-09-29T03:16:35.355Z,8.80
2022-09-29T03:19:05.264Z,7.28
2022-09-29T03:21:32.810Z,7.65
2022-09-29T03:24:00.325Z,10.13
2022-09-29T03:26:27.649Z,9.52
2022-09-29T03:28:55.199Z,6.93
2022-09-29T03:31:22.541Z,10.73
2022-09-29T03:33:49.869Z,10.00
2022-09-29T03:36:17.432Z,8.57
2022-09-29T03:38:46.994Z,9.45
2022-09-29T03:41:14.323Z,8.65
2022-09-29T03:43:41.948Z,9.88
2022-09-29T03:46:09.328Z,10.38
2022-09-29T03:48:36.767Z,10.63
2022-09-29T03:51:04.517Z,10.23
2022-09-29T03:53:34.200Z,12.82
2022-09-29T03:56:02.268Z,13.40
2022-09-29T03:58:30.167Z,15.80
2022-09-29T04:00:57.543Z,14.87
2022-09-29T04:03:25.605Z,18.95
2022-09-29T04:05:52.913Z,15.07
2022-09-29T04:08:20.207Z,16.27
2022-09-29T04:10:48.136Z,13.93
2022-09-29T04:13:19.783Z,13.80
2022-09-29T04:15:48.872Z,12.60
2022-09-29T04:18:16.477Z,10.27
2022-09-29T04:20:43.786Z,12.13
2022-09-29T04:23:12.675Z,11.85
2022-09-29T04:25:39.991Z,9.88
2022-09-29T04:28:07.439Z,13.40
2022-09-29T04:30:35.008Z,10.35
2022-09-29T04:33:02.318Z,11.85
2022-09-29T04:35:32.561Z,11.68
2022-09-29T04:38:02.409Z,11.85
2022-09-29T04:40:29.743Z,11.90
2022-09-29T04:42:57.085Z,13.35
2022-09-29T04:45:24.652Z,10.48
2022-09-29T04:47:51.961Z,10.23
2022-09-29T04:50:19.351Z,10.15
2022-09-29T04:52:47.005Z,10.43
2022-09-29T04:55:14.500Z,12.30
2022-09-29T04:57:43.380Z,10.40
2022-09-29T05:00:12.076Z,11.48
2022-09-29T05:02:39.509Z,13.90
2022-09-29T05:05:07.739Z,13.48
2022-09-29T05:07:35.587Z,13.13
2022-09-29T05:10:04.133Z,10.70
2022-09-29T05:12:31.487Z,12.70
2022-09-29T05:14:59.130Z,14.70
2022-09-29T05:17:26.544Z,16.52
2022-09-29T05:19:53.862Z,15.25
2022-09-29T05:22:24.429Z,16.05
2022-09-29T05:24:52.390Z,14.05
2022-09-29T05:27:20.110Z,13.02
2022-09-29T05:29:47.854Z,13.07
2022-09-29T05:32:15.240Z,12.45
2022-09-29T05:34:42.597Z,16.23
2022-09-29T05:37:10.492Z,13.38
2022-09-29T05:39:37.837Z,15.43
2022-09-29T05:42:09.024Z,11.65
2022-09-29T05:44:36.579Z,10.13
2022-09-29T05:47:03.905Z,14.13
2022-09-29T05:49:32.811Z,9.38
2022-09-29T05:52:00.692Z,8.65
2022-09-29T05:54:28.054Z,7.47
2022-09-29T05:56:56.094Z,7.18
2022-09-29T05:59:23.649Z,7.55
2022-09-29T06:01:51.288Z,8.10
2022-09-29T06:04:18.911Z,10.05
2022-09-29T06:06:48.102Z,5.75
2022-09-29T06:09:15.708Z,5.37
2022-09-29T06:11:43.317Z,5.05
2022-09-29T06:14:10.629Z,6.00
2022-09-29T06:16:37.995Z,5.35
2022-09-29T06:19:05.628Z,5.28
2022-09-29T06:21:35.539Z,5.03
2022-09-29T06:24:03.280Z,3.20
2022-09-29T06:26:31.130Z,3.70
2022-09-29T06:28:58.647Z,2.67
2022-09-29T06:31:27.584Z,3.97
2022-09-29T06:34:00.339Z,1.50
2022-09-29T06:39:18.680Z,1.37
2022-09-29T06:41:52.165Z,1.92
2022-09-29T06:44:20.977Z,2.70
2022-09-29T06:46:48.632Z,4.25
2022-09-29T06:49:16.722Z,1.20
2022-09-29T06:51:46.425Z,2.95
2022-09-29T06:54:16.155Z,2.12
2022-09-29T06:56:47.056Z,2.70
2022-09-29T06:59:14.414Z,1.10
2022-09-29T07:01:41.949Z,1.85
2022-09-29T07:04:10.562Z,4.12
2022-09-29T07:06:37.837Z,1.40
2022-09-29T07:09:05.673Z,1.10
2022-09-29T07:11:33.215Z,2.58
2022-09-29T07:14:00.552Z,1.92
2022-09-29T07:16:28.085Z,1.98
2022-09-29T07:18:55.650Z,1.30
2022-09-29T07:21:22.952Z,1.00
2022-09-29T07:23:50.292Z,1.37
2022-09-29T07:26:18.119Z,1.40
2022-09-29T07:28:46.173Z,1.35
2022-09-29T07:31:19.245Z,2.37
2022-09-29T07:33:48.048Z,1.10
2022-09-29T07:36:17.176Z,1.70
2022-09-29T07:38:51.477Z,1.40
2022-09-29T07:41:21.274Z,1.67
2022-09-29T07:43:48.577Z,2.33
2022-09-29T07:46:16.049Z,3.05
2022-09-29T07:48:43.797Z,3.12
2022-09-29T07:51:13.877Z,2.33
2022-09-29T07:53:41.700Z,1.77
2022-09-29T07:56:14.889Z,2.25
2022-09-29T07:58:42.407Z,1.60
2022-09-29T08:01:12.769Z,4.15
2022-09-29T08:03:41.237Z,1.50
2022-09-29T08:06:09.669Z,2.15
2022-09-29T08:08:41.020Z,1.65
2022-09-29T08:11:20.195Z,1.52
2022-09-29T08:13:53.506Z,2.67
2022-09-29T08:16:21.402Z,1.58
2022-09-29T08:18:50.274Z,1.08
2022-09-29T08:21:17.731Z,1.08
2022-09-29T08:23:45.485Z,2.17
2022-09-29T08:26:14.985Z,2.72
2022-09-29T08:28:42.917Z,1.25
2022-09-29T08:31:19.750Z,2.05
2022-09-29T08:33:49.826Z,0.90
2022-09-29T08:36:20.373Z,1.25
2022-09-29T08:38:55.348Z,1.95
2022-09-29T08:41:54.751Z,1.15
2022-09-29T08:44:38.722Z,1.55
2022-09-29T08:47:43.251Z,1.85
2022-09-29T08:50:23.019Z,1.48
2022-09-29T08:52:56.310Z,1.20
2022-09-29T08:55:42.458Z,0.65
2022-09-29T08:58:15.744Z,0.70
2022-09-29T09:00:52.650Z,0.80
2022-09-29T09:03:41.642Z,0.82
2022-09-29T09:06:19.713Z,1.10
2022-09-29T09:08:53.299Z,1.10
2022-09-29T09:11:38.905Z,2.72
2022-09-29T09:14:31.318Z,1.30
2022-09-29T09:17:01.391Z,1.08
2022-09-29T09:19:50.460Z,0.73
2022-09-29T09:22:25.425Z,0.93
2022-09-29T09:24:57.616Z,1.80
2022-09-29T09:27:34.861Z,1.92
2022-09-29T09:30:05.963Z,0.50
2022-09-29T09:32:37.891Z,1.98
2022-09-29T09:37:53.938Z,1.30
2022-09-29T09:40:24.630Z,1.65
2022-09-29T09:43:14.331Z,1.60
2022-09-29T09:45:50.584Z,1.92
2022-09-29T09:48:33.416Z,2.62
2022-09-29T09:51:20.825Z,0.70
2022-09-29T09:53:50.554Z,1.42
2022-09-29T09:56:43.208Z,0.70
2022-09-29T09:59:38.479Z,0.93
2022-09-29T10:02:18.340Z,0.68
2022-09-29T10:04:49.922Z,1.17
2022-09-29T10:07:18.160Z,1.25
2022-09-29T10:09:46.167Z,0.60
2022-09-29T10:12:23.832Z,0.60
2022-09-29T10:15:22.238Z,0.80
2022-09-29T10:17:59.312Z,0.40
2022-09-29T10:20:36.481Z,0.90
2022-09-29T10:23:39.260Z,2.67
2022-09-29T10:26:18.130Z,0.85
2022-09-29T10:28:51.285Z,1.15
2022-09-29T10:31:28.236Z,0.88
2022-09-29T10:34:15.926Z,0.75
2022-09-29T10:36:56.002Z,0.68
2022-09-29T10:39:43.508Z,0.57
2022-09-29T10:42:31.951Z,0.50
2022-09-29T10:45:18.429Z,0.98
2022-09-29T10:48:07.649Z,1.62
2022-09-29T10:50:38.310Z,1.40
2022-09-29T10:53:16.130Z,0.40
2022-09-29T10:55:53.291Z,0.40
2022-09-29T10:58:44.695Z,0.47
2022-09-29T11:01:19.620Z,1.17
2022-09-29T11:04:01.645Z,0.40
2022-09-29T11:06:31.526Z,1.00
2022-09-29T11:09:03.844Z,3.62
2022-09-29T11:11:39.397Z,0.50
2022-09-29T11:14:40.263Z,0.47
2022-09-29T11:17:31.580Z,0.80
2022-09-29T11:20:02.196Z,0.55
2022-09-29T11:22:32.355Z,0.50
2022-09-29T11:25:15.149Z,0.50
2022-09-29T11:28:13.288Z,1.98
2022-09-29T11:31:02.072Z,0.57
2022-09-29T11:33:35.579Z,0.85
2022-09-29T11:36:42.226Z,1.50
2022-09-29T11:39:22.997Z,1.02
2022-09-29T11:41:59.183Z,0.65
2022-09-29T11:44:48.780Z,1.50
2022-09-29T11:47:45.124Z,1.58
2022-09-29T11:50:22.417Z,0.45
2022-09-29T11:53:11.635Z,0.60
2022-09-29T11:55:47.844Z,2.25
2022-09-29T11:58:45.946Z,0.73
2022-09-29T12:01:30.828Z,0.35
2022-09-29T12:04:09.679Z,1.25
2022-09-29T12:06:51.670Z,1.58
2022-09-29T12:09:58.101Z,1.20
2022-09-29T12:12:28.365Z,0.55
2022-09-29T12:15:08.276Z,0.50
2022-09-29T12:17:39.025Z,1.75
2022-09-29T12:20:26.130Z,0.35
2022-09-29T12:22:54.927Z,0.68
2022-09-29T12:25:27.335Z,5.87
2022-09-29T12:30:30.419Z,4.60
2022-09-29T12:33:21.451Z,4.80
2022-09-29T12:36:02.582Z,1.58
2022-09-29T12:38:42.360Z,2.42
2022-09-29T12:41:27.225Z,1.00
2022-09-29T12:43:59.970Z,1.12
2022-09-29T12:46:38.351Z,1.12
2022-09-29T12:49:13.628Z,0.90
2022-09-29T12:51:51.905Z,0.60
2022-09-29T12:54:23.903Z,1.65
2022-09-29T12:56:58.910Z,0.90
2022-09-29T12:59:38.502Z,1.02
2022-09-29T13:02:28.065Z,0.75
2022-09-29T13:05:04.531Z,0.80
2022-09-29T13:07:58.240Z,1.27
2022-09-29T13:10:59.744Z,1.85
2022-09-29T13:14:04.343Z,1.65
2022-09-29T13:16:40.431Z,2.67
2022-09-29T13:19:52.535Z,3.10
2022-09-29T13:22:41.599Z,2.20
2022-09-29T13:25:33.151Z,1.00
2022-09-29T13:28:00.528Z,1.62
2022-09-29T13:30:29.776Z,1.62
2022-09-29T13:33:03.053Z,0.80
2022-09-29T13:35:38.485Z,1.83
2022-09-29T13:38:07.608Z,1.17
2022-09-29T13:40:35.527Z,4.15
2022-09-29T13:43:05.513Z,2.75
2022-09-29T13:45:34.730Z,2.28
2022-09-29T13:48:31.285Z,1.37
2022-09-29T13:51:05.138Z,1.85
2022-09-29T13:53:37.525Z,2.05
2022-09-29T13:56:05.034Z,11.63
2022-09-29T13:58:34.367Z,5.55
2022-09-29T14:01:06.687Z,4.80
2022-09-29T14:03:35.844Z,5.43
2022-09-29T14:06:40.714Z,4.15
2022-09-29T14:09:18.513Z,3.95
2022-09-29T14:11:51.419Z,2.50
2022-09-29T14:14:31.826Z,2.40
2022-09-29T14:17:06.389Z,2.37
2022-09-29T14:19:53.948Z,4.47
2022-09-29T14:22:30.678Z,3.12
2022-09-29T14:25:10.946Z,0.80
2022-09-29T14:28:01.354Z,2.58
2022-09-29T14:30:32.518Z,2.55
2022-09-29T14:33:04.863Z,1.30
2022-09-29T14:35:40.715Z,0.82
2022-09-29T14:38:18.027Z,1.17
2022-09-29T14:40:59.835Z,1.20
2022-09-29T14:43:37.379Z,3.37
2022-09-29T14:46:57.781Z,1.12
2022-09-29T14:49:53.019Z,2.87
2022-09-29T14:52:44.896Z,1.62
2022-09-29T14:55:33.867Z,1.12
2022-09-29T14:58:26.168Z,1.65
2022-09-29T15:01:10.291Z,1.00
2022-09-29T15:03:53.412Z,1.25
2022-09-29T15:06:23.080Z,2.58
2022-09-29T15:09:01.606Z,2.45
2022-09-29T15:11:38.085Z,2.25
2022-09-29T15:14:23.203Z,1.10
2022-09-29T15:17:20.187Z,0.50
2022-09-29T15:19:56.593Z,1.27
2022-09-29T15:22:43.063Z,4.40
2022-09-29T15:25:24.028Z,1.52
2022-09-29T15:27:53.914Z,0.73
2022-09-29T15:30:23.047Z,1.80
2022-09-29T15:32:51.130Z,1.00
2022-09-29T15:35:25.573Z,0.98
2022-09-29T15:38:10.026Z,3.25
2022-09-29T15:40:37.474Z,3.00
2022-09-29T15:43:22.374Z,0.73
2022-09-29T15:45:55.310Z,1.90
2022-09-29T15:48:22.976Z,2.95
2022-09-29T15:50:51.166Z,2.47
2022-09-29T15:53:18.937Z,3.22
2022-09-29T15:55:46.527Z,2.28
2022-09-29T15:58:36.884Z,2.90
2022-09-29T16:01:06.793Z,3.75
2022-09-29T16:03:40.863Z,5.78
2022-09-29T16:06:26.289Z,8.10
2022-09-29T16:08:56.681Z,5.28
2022-09-29T16:11:26.345Z,5.90
2022-09-29T16:13:59.378Z,10.68
2022-09-29T16:16:30.288Z,16.12
2022-09-29T16:19:07.227Z,14.55
2022-09-29T16:21:37.454Z,15.88
2022-09-29T16:24:21.158Z,11.68
2022-09-29T16:26:53.773Z,7.82
2022-09-29T16:29:35.590Z,9.77
2022-09-29T16:32:37.165Z,9.73
2022-09-29T16:35:39.567Z,11.00
2022-09-29T16:38:36.095Z,10.48
2022-09-29T16:41:36.696Z,14.10
2022-09-29T16:44:36.444Z,13.88
2022-09-29T16:47:09.648Z,13.77
2022-09-29T16:49:44.764Z,16.70
2022-09-29T16:52:17.509Z,24.35
2022-09-29T16:54:47.446Z,26.83
2022-09-29T16:57:30.113Z,26.70
2022-09-29T17:02:27.103Z,22.15
2022-09-29T17:04:55.692Z,24.50
2022-09-29T17:07:24.949Z,21.87
2022-09-29T17:09:58.653Z,25.35
2022-09-29T17:12:28.195Z,41.58
2022-09-29T17:14:55.809Z,51.28
2022-09-29T17:17:24.932Z,38.90
2022-09-29T17:19:56.401Z,29.10
2022-09-29T17:22:32.137Z,41.45
2022-09-29T17:24:59.527Z,52.20
2022-09-29T17:27:46.557Z,42.72
2022-09-29T17:30:18.684Z,35.72
2022-09-29T17:32:47.046Z,28.70
2022-09-29T17:35:16.719Z,23.05
2022-09-29T17:37:46.542Z,31.98
2022-09-29T17:40:20.567Z,31.85
2022-09-29T17:42:48.331Z,33.53
2022-09-29T17:45:18.192Z,29.37
2022-09-29T17:47:46.676Z,29.50
2022-09-29T17:50:23.192Z,25.37
2022-09-29T17:52:51.531Z,20.02
2022-09-29T17:55:19.277Z,18.98
2022-09-29T17:57:49.506Z,17.15
2022-09-29T18:00:21.289Z,20.73
2022-09-29T18:02:50.948Z,32.80
2022-09-29T18:05:25.185Z,41.35
2022-09-29T18:07:54.372Z,53.17
2022-09-29T18:10:38.144Z,58.17
2022-09-29T18:13:07.446Z,59.05
2022-09-29T18:18:06.013Z,90.45
2022-09-29T18:20:40.137Z,83.20
2022-09-29T18:23:10.427Z,72.87
2022-09-29T18:25:38.097Z,65.00
2022-09-29T18:28:05.398Z,58.33
2022-09-29T18:30:40.154Z,53.42
2022-09-29T18:33:14.362Z,45.55
2022-09-29T18:38:11.828Z,41.28
2022-09-29T18:40:39.840Z,33.53
2022-09-29T18:43:07.789Z,33.58
2022-09-29T18:45:37.071Z,33.15
2022-09-29T18:48:06.617Z,32.88
2022-09-29T18:50:38.717Z,41.20
2022-09-29T18:53:06.368Z,49.60
2022-09-29T18:55:33.700Z,52.50
2022-09-29T18:58:01.513Z,52.35
2022-09-29T19:00:36.056Z,60.65
2022-09-29T19:03:05.166Z,54.63
2022-09-29T19:05:34.515Z,52.10
2022-09-29T19:08:05.657Z,51.78
2022-09-29T19:13:08.104Z,38.42
2022-09-29T19:15:38.674Z,29.92
2022-09-29T19:18:07.481Z,28.58
2022-09-29T19:20:35.469Z,28.15
2022-09-29T19:23:03.799Z,31.87
2022-09-29T19:25:37.246Z,35.95
2022-09-29T19:28:05.609Z,31.12
2022-09-29T19:30:38.370Z,29.37
2022-09-29T19:33:07.523Z,32.00
2022-09-29T19:35:36.205Z,31.65
2022-09-29T19:38:04.154Z,27.42
2022-09-29T19:40:37.498Z,27.02
2022-09-29T19:43:05.773Z,35.75
2022-09-29T19:45:39.690Z,33.95
2022-09-29T19:48:10.883Z,30.95
2022-09-29T19:50:56.787Z,27.37
2022-09-29T19:53:24.127Z,27.70
2022-09-29T19:55:52.820Z,26.40
2022-09-29T19:58:20.826Z,30.30
2022-09-29T20:00:48.201Z,30.35
2022-09-29T20:03:15.811Z,35.45
2022-09-29T20:05:43.131Z,19.42
2022-09-29T20:08:10.453Z,16.98
2022-09-29T20:10:38.076Z,15.82
2022-09-29T20:13:05.406Z,15.90
2022-09-29T20:15:32.748Z,10.98
2022-09-29T20:18:00.383Z,9.93
2022-09-29T20:20:27.952Z,16.30
2022-09-29T20:22:55.308Z,9.52
2022-09-29T20:25:22.908Z,11.32
2022-09-29T20:27:51.779Z,8.50
2022-09-29T20:30:20.800Z,9.85
2022-09-29T20:32:50.656Z,11.80
2022-09-29T20:35:18.227Z,16.37
2022-09-29T20:37:46.952Z,18.85
2022-09-29T20:40:14.572Z,21.30
2022-09-29T20:42:41.912Z,19.10
2022-09-29T20:45:09.667Z,16.10
2022-09-29T20:47:37.224Z,18.05
2022-09-29T20:50:05.350Z,12.07
2022-09-29T20:52:32.523Z,16.52
2022-09-29T20:55:00.840Z,14.90
2022-09-29T20:57:28.487Z,14.38
2022-09-29T20:59:55.849Z,13.45
2022-09-29T21:02:23.796Z,13.35
2022-09-29T21:04:51.243Z,14.10
2022-09-29T21:07:36.409Z,11.60
2022-09-29T21:10:06.164Z,20.15
2022-09-29T21:12:34.080Z,21.12
2022-09-29T21:15:01.599Z,21.23
2022-09-29T21:17:29.916Z,15.98
2022-09-29T21:20:20.647Z,7.37
2022-09-29T21:23:00.228Z,7.95
2022-09-29T21:25:32.220Z,11.00
2022-09-29T21:28:22.753Z,10.43
2022-09-29T21:31:07.286Z,9.25
2022-09-29T21:33:36.938Z,11.07
2022-09-29T21:36:15.373Z,8.32
2022-09-29T21:39:02.004Z,12.35
2022-09-29T21:41:51.459Z,7.03
2022-09-29T21:44:21.573Z,8.70
2022-09-29T21:47:09.478Z,12.85
2022-09-29T21:49:39.788Z,7.43
2022-09-29T21:52:10.008Z,10.25
2022-09-29T21:54:49.627Z,9.23
2022-09-29T21:57:32.326Z,9.63
2022-09-29T22:00:02.470Z,8.48
2022-09-29T22:05:41.972Z,10.20
2022-09-29T22:08:14.482Z,9.95
2022-09-29T22:10:52.854Z,8.32
2022-09-29T22:13:31.120Z,9.50
2022-09-29T22:16:10.153Z,7.35
2022-09-29T22:18:43.496Z,7.35
2022-09-29T22:21:31.472Z,7.10
2022-09-29T22:24:05.282Z,8.55
2022-09-29T22:26:39.492Z,7.12
2022-09-29T22:29:15.109Z,11.48
2022-09-29T22:31:42.940Z,11.45
2022-09-29T22:34:39.419Z,10.45
2022-09-29T22:37:12.491Z,10.50
2022-09-29T22:39:40.076Z,8.00
2022-09-29T22:42:30.642Z,9.32
2022-09-29T22:44:57.994Z,11.23
2022-09-29T22:47:28.284Z,9.77
2022-09-29T22:50:26.155Z,10.82
2022-09-29T22:52:59.576Z,12.40
2022-09-29T22:55:53.164Z,9.07
2022-09-29T22:58:20.812Z,11.27
2022-09-29T23:01:01.328Z,9.10
2022-09-29T23:03:38.097Z,9.60
2022-09-29T23:06:22.917Z,9.43
2022-09-29T23:08:55.438Z,10.95
2022-09-29T23:11:34.591Z,11.88
2022-09-29T23:14:25.069Z,9.75
2022-09-29T23:17:01.595Z,11.82
2022-09-29T23:19:29.201Z,14.15
2022-09-29T23:22:01.803Z,10.57
2022-09-29T23:24:32.392Z,13.30
2022-09-29T23:27:23.027Z,10.52
2022-09-29T23:29:59.407Z,14.43
2022-09-29T23:32:35.035Z,12.18
2022-09-29T23:35:11.890Z,10.23
2022-09-29T23:38:00.628Z,12.95
2022-09-29T23:40:46.552Z,10.27
2022-09-29T23:43:32.256Z,10.45
2022-09-29T23:45:59.883Z,11.65
2022-09-29T23:48:27.384Z,11.70
2022-09-29T23:50:55.352Z,9.95
2022-09-29T23:53:22.895Z,9.93
2022-09-29T23:55:50.424Z,11.65
2022-09-29T23:58:17.711Z,10.90
